createdAt,value
2023-02-13T00:03:56.921Z,98883.66
2023-02-13T00:09:17.433Z,98890.69
2023-02-13T00:14:39.792Z,98891.69
2023-02-13T00:20:00.394Z,98891.81
2023-02-13T00:25:21.630Z,98885.81
2023-02-13T00:30:42.351Z,98885.00
2023-02-13T00:36:12.933Z,98887.44
2023-02-13T00:41:33.831Z,98893.13
2023-02-13T00:46:54.651Z,98885.97
2023-02-13T00:52:15.187Z,98883.28
2023-02-13T00:57:37.937Z,98881.44
2023-02-13T01:02:58.544Z,98880.53
2023-02-13T01:08:20.768Z,98876.94
2023-02-13T01:13:41.568Z,98883.50
2023-02-13T01:19:02.065Z,98875.19
2023-02-13T01:24:25.389Z,98872.09
2023-02-13T01:29:45.988Z,98872.88
2023-02-13T01:35:07.803Z,98869.66
2023-02-13T01:40:30.065Z,98864.50
2023-02-13T01:45:56.327Z,98865.00
2023-02-13T01:51:23.468Z,98864.03
2023-02-13T01:56:48.675Z,98868.97
2023-02-13T02:02:09.874Z,98868.75
2023-02-13T02:07:31.653Z,98875.19
2023-02-13T02:13:08.470Z,98872.41
2023-02-13T02:18:31.238Z,98870.69
2023-02-13T02:24:43.869Z,98864.72
2023-02-13T02:30:17.656Z,98859.13
2023-02-13T02:35:56.426Z,98862.34
2023-02-13T02:41:45.556Z,98854.66
2023-02-13T02:47:35.809Z,98859.50
2023-02-13T02:53:22.041Z,98852.44
2023-02-13T02:59:26.303Z,98845.06
2023-02-13T03:05:10.765Z,98835.59
2023-02-13T03:10:53.367Z,98835.06
2023-02-13T03:16:37.918Z,98837.56
2023-02-13T03:22:28.653Z,98835.94
2023-02-13T03:28:40.818Z,98839.03
2023-02-13T03:34:04.841Z,98839.78
2023-02-13T03:39:43.477Z,98848.88
2023-02-13T03:45:47.789Z,98838.84
2023-02-13T03:51:12.382Z,98835.03
2023-02-13T03:56:54.312Z,98833.09
2023-02-13T04:02:21.533Z,98826.00
2023-02-13T04:07:42.169Z,98835.28
2023-02-13T04:13:20.873Z,98834.38
2023-02-13T04:18:42.853Z,98823.94
2023-02-13T04:24:04.600Z,98831.56
2023-02-13T04:29:27.384Z,98834.84
2023-02-13T04:34:48.157Z,98831.63
2023-02-13T04:40:09.677Z,98828.25
2023-02-13T04:45:30.441Z,98841.06
2023-02-13T04:50:51.217Z,98845.84
2023-02-13T04:56:11.939Z,98840.09
2023-02-13T05:01:32.768Z,98835.19
2023-02-13T05:06:53.282Z,98837.69
2023-02-13T05:12:14.050Z,98833.47
2023-02-13T05:17:34.769Z,98831.94
2023-02-13T05:23:13.852Z,98829.25
2023-02-13T05:28:52.987Z,98837.53
2023-02-13T05:34:14.008Z,98836.63
2023-02-13T05:39:34.903Z,98839.06
2023-02-13T05:44:55.499Z,98850.66
2023-02-13T05:50:16.478Z,98843.41
2023-02-13T05:55:38.752Z,98837.44
2023-02-13T06:01:00.572Z,98828.47
2023-02-13T06:06:22.796Z,98841.00
2023-02-13T06:11:43.553Z,98841.13
2023-02-13T06:17:04.332Z,98848.03
2023-02-13T06:22:25.104Z,98842.78
2023-02-13T06:27:46.717Z,98847.97
2023-02-13T06:33:07.762Z,98853.84
2023-02-13T06:38:28.736Z,98852.63
2023-02-13T06:43:49.376Z,98855.81
2023-02-13T06:49:10.331Z,98859.19
2023-02-13T06:54:46.246Z,98863.66
2023-02-13T07:00:08.749Z,98865.28
2023-02-13T07:05:30.218Z,98857.75
2023-02-13T07:10:51.130Z,98862.59
2023-02-13T07:16:11.790Z,98858.44
2023-02-13T07:21:32.334Z,98870.63
2023-02-13T07:26:53.017Z,98878.84
2023-02-13T07:32:13.665Z,98878.09
2023-02-13T07:37:34.573Z,98879.81
2023-02-13T07:42:56.023Z,98883.66
2023-02-13T07:48:17.079Z,98884.94
2023-02-13T07:53:37.791Z,98882.94
2023-02-13T07:58:58.725Z,98868.34
2023-02-13T08:04:19.303Z,98872.28
2023-02-13T08:09:58.496Z,98862.41
2023-02-13T08:15:19.499Z,98866.88
2023-02-13T08:20:40.372Z,98875.25
2023-02-13T08:26:02.090Z,98866.13
2023-02-13T08:31:23.470Z,98868.22
2023-02-13T08:36:44.280Z,98871.13
2023-02-13T08:42:04.989Z,98872.03
2023-02-13T08:47:25.718Z,98872.94
2023-02-13T08:52:46.637Z,98873.59
2023-02-13T08:58:07.153Z,98883.50
2023-02-13T09:03:27.895Z,98883.75
2023-02-13T09:08:48.486Z,98881.81
2023-02-13T09:14:09.320Z,98883.78
2023-02-13T09:19:29.925Z,98885.81
2023-02-13T09:24:50.740Z,98880.84
2023-02-13T09:30:13.122Z,98887.25
2023-02-13T09:35:33.921Z,98885.16
2023-02-13T09:40:59.868Z,98880.25
2023-02-13T09:46:27.038Z,98885.44
2023-02-13T09:51:55.786Z,98889.72
2023-02-13T09:57:25.877Z,98891.19
2023-02-13T10:02:53.479Z,98888.94
2023-02-13T10:08:29.658Z,98891.84
2023-02-13T10:13:53.517Z,98898.97
2023-02-13T10:19:38.378Z,98897.13
2023-02-13T10:25:24.157Z,98893.44
2023-02-13T10:31:00.889Z,98897.88
2023-02-13T10:36:34.070Z,98889.81
2023-02-13T10:41:58.680Z,98884.22
2023-02-13T10:47:59.304Z,98879.75
2023-02-13T10:53:25.902Z,98879.56
2023-02-13T10:59:05.367Z,98876.25
2023-02-13T11:04:25.888Z,98871.97
2023-02-13T11:09:49.636Z,98869.09
2023-02-13T11:15:20.967Z,98868.31
2023-02-13T11:20:44.713Z,98869.75
2023-02-13T11:26:32.940Z,98867.50
2023-02-13T11:32:15.752Z,98868.69
2023-02-13T11:37:37.630Z,98858.81
2023-02-13T11:42:58.421Z,98859.84
2023-02-13T11:48:23.345Z,98857.41
2023-02-13T11:53:44.139Z,98864.25
2023-02-13T11:59:05.527Z,98860.16
2023-02-13T12:04:26.182Z,98856.34
2023-02-13T12:09:55.464Z,98862.88
2023-02-13T12:15:20.933Z,98856.78
2023-02-13T12:21:05.847Z,98846.59
2023-02-13T12:26:33.589Z,98833.44
2023-02-13T12:32:20.150Z,98825.97
2023-02-13T12:38:15.625Z,98820.75
2023-02-13T12:44:02.508Z,98812.97
2023-02-13T12:49:44.852Z,98811.09
2023-02-13T12:55:41.840Z,98795.44
2023-02-13T13:01:05.675Z,98796.03
2023-02-13T13:06:34.963Z,98787.13
2023-02-13T13:12:07.866Z,98791.03
2023-02-13T13:17:44.107Z,98790.03
2023-02-13T13:23:12.320Z,98782.34
2023-02-13T13:28:37.286Z,98781.81
2023-02-13T13:34:02.347Z,98791.41
2023-02-13T13:39:44.398Z,98781.22
2023-02-13T13:45:35.656Z,98770.44
2023-02-13T13:50:57.270Z,98774.78
2023-02-13T13:56:18.268Z,98768.75
2023-02-13T14:01:39.002Z,98770.66
2023-02-13T14:06:59.449Z,98775.91
2023-02-13T14:12:29.471Z,98784.53
2023-02-13T14:17:52.451Z,98780.94
2023-02-13T14:23:28.588Z,98787.25
2023-02-13T14:28:49.448Z,98787.53
2023-02-13T14:34:15.039Z,98779.75
2023-02-13T14:39:36.621Z,98784.38
2023-02-13T14:45:00.637Z,98782.16
2023-02-13T14:50:26.667Z,98777.69
2023-02-13T14:55:53.976Z,98784.47
2023-02-13T15:01:24.261Z,98778.44
2023-02-13T15:06:46.798Z,98774.47
2023-02-13T15:12:32.431Z,98767.38
2023-02-13T15:18:00.758Z,98758.38
2023-02-13T15:23:28.421Z,98761.88
2023-02-13T15:29:29.299Z,98754.16
2023-02-13T15:34:53.730Z,98753.59
2023-02-13T15:40:35.647Z,98763.19
2023-02-13T15:46:01.498Z,98762.84
2023-02-13T15:51:29.778Z,98749.97
2023-02-13T15:56:52.072Z,98739.16
2023-02-13T16:02:46.196Z,98738.44
2023-02-13T16:08:30.686Z,98742.72
2023-02-13T16:14:18.461Z,98735.78
2023-02-13T16:19:51.358Z,98749.09
2023-02-13T16:25:28.705Z,98739.41
2023-02-13T16:30:57.501Z,98733.56
2023-02-13T16:36:27.308Z,98729.91
2023-02-13T16:41:48.437Z,98734.69
2023-02-13T16:47:22.276Z,98742.59
2023-02-13T16:52:43.188Z,98752.56
2023-02-13T16:58:05.482Z,98744.19
2023-02-13T17:03:26.398Z,98754.69
2023-02-13T17:08:47.036Z,98753.47
2023-02-13T17:14:07.944Z,98759.88
2023-02-13T17:19:31.222Z,98747.94
2023-02-13T17:24:51.898Z,98740.97
2023-02-13T17:30:21.788Z,98738.13
2023-02-13T17:35:42.613Z,98735.31
2023-02-13T17:41:03.294Z,98740.91
2023-02-13T17:46:24.191Z,98727.53
2023-02-13T17:51:46.016Z,98734.44
2023-02-13T17:57:06.598Z,98739.69
2023-02-13T18:02:27.965Z,98736.75
2023-02-13T18:07:49.040Z,98738.13
2023-02-13T18:13:10.105Z,98740.28
2023-02-13T18:18:30.839Z,98742.19
2023-02-13T18:23:53.379Z,98748.28
2023-02-13T18:29:14.357Z,98740.97
2023-02-13T18:34:37.003Z,98742.75
2023-02-13T18:39:58.668Z,98747.16
2023-02-13T18:45:19.600Z,98733.81
2023-02-13T18:50:42.266Z,98733.06
2023-02-13T18:56:05.870Z,98731.44
2023-02-13T19:01:27.001Z,98734.50
2023-02-13T19:06:47.789Z,98733.78
2023-02-13T19:12:08.611Z,98714.72
2023-02-13T19:17:29.587Z,98718.88
2023-02-13T19:22:50.255Z,98713.34
2023-02-13T19:28:11.351Z,98704.22
2023-02-13T19:33:32.218Z,98694.78
2023-02-13T19:38:58.354Z,98695.09
2023-02-13T19:44:19.551Z,98721.97
2023-02-13T19:49:40.271Z,98720.25
2023-02-13T19:55:01.840Z,98714.94
2023-02-13T20:00:24.591Z,98717.50
2023-02-13T20:05:45.665Z,98700.56
2023-02-13T20:11:13.085Z,98710.38
2023-02-13T20:16:35.595Z,98701.97
2023-02-13T20:21:56.540Z,98706.25
2023-02-13T20:27:17.371Z,98695.97
2023-02-13T20:32:38.506Z,98698.78
2023-02-13T20:38:00.261Z,98707.81
2023-02-13T20:43:21.091Z,98696.84
2023-02-13T20:48:43.763Z,98701.88
2023-02-13T20:54:05.173Z,98692.31
2023-02-13T20:59:26.001Z,98698.78
2023-02-13T21:04:47.329Z,98703.19
2023-02-13T21:10:08.764Z,98712.41
2023-02-13T21:15:30.222Z,98697.91
2023-02-13T21:20:51.437Z,98698.97
2023-02-13T21:26:17.276Z,98702.69
2023-02-13T21:31:44.210Z,98711.59
2023-02-13T21:37:05.541Z,98717.88
2023-02-13T21:42:26.171Z,98708.63
2023-02-13T21:47:47.335Z,98695.97
2023-02-13T21:53:08.627Z,98702.66
2023-02-13T21:58:33.280Z,98722.19
2023-02-13T22:03:59.842Z,98722.75
2023-02-13T22:09:22.485Z,98720.41
2023-02-13T22:14:43.396Z,98729.94
2023-02-13T22:20:04.550Z,98733.59
2023-02-13T22:25:25.368Z,98732.25
2023-02-13T22:30:46.188Z,98729.91
2023-02-13T22:36:07.245Z,98749.16
2023-02-13T22:41:28.390Z,98758.44
2023-02-13T22:46:49.174Z,98762.03
2023-02-13T22:52:10.827Z,98758.69
2023-02-13T22:57:31.655Z,98762.78
2023-02-13T23:02:52.363Z,98765.97
2023-02-13T23:08:13.632Z,98755.47
2023-02-13T23:13:34.399Z,98766.66
2023-02-13T23:18:56.697Z,98784.75
2023-02-13T23:24:17.400Z,98791.47
2023-02-13T23:29:38.735Z,98792.41
2023-02-13T23:34:59.703Z,98805.16
2023-02-13T23:40:20.588Z,98804.91
2023-02-13T23:45:41.536Z,98806.44
2023-02-13T23:51:02.709Z,98805.66
2023-02-13T23:56:24.921Z,98798.78
